Port O'Connor, TX (77982)

11:32 PM CDT on September 20, 2014 (GMT -0500)
coastal plains | Change Station
CLOSE
Current Station
Personal Weather Station
Location: Seadrift, TX
Elevation: 13 ft
Nearby Weather Stations

Elev 13 ft 28.41 °N, 96.63 °W | Updated 1 second ago

Clear
Clear
78.3 °F
Feels Like 81 °F
N
6.0
Wind Variable Wind from ENE
Gusts 7.0 mph

Today
High -- | Low -- °F
--% Chance of Precip.
Yesterday
High -- | Low -- °F
Precip. -- in
7:13 AM 7:25 PM
Waning Crescent, 9% visible
Pressure 29.94 in
Visibility 10.0 miles
Clouds Clear
Heat Index 81 °F
Dew Point 75 °F
Humidity 90%
Rainfall 0.28 in
Snow Depth Not available.
UV 0 out of 12
Pollen 8.70 out of 12
Ozone Good
Flu Activity Not available.
METAR KPKV 210415Z AUTO 05006KT 10SM CLR 25/24 A2994 RMK AO2 T02520237

More Conditions Fewer Conditions

Pressure 29.94 in
Visibility 10.0 miles
Clouds Clear
Heat Index 81 °F
Dew Point 75 °F
Humidity 90%
Rainfall 0.28 in
Snow Depth Not available.
UV 0 out of 12
Pollen 8.70 out of 12
Ozone Good
Flu Activity Not available.
METAR KPKV 210415Z AUTO 05006KT 10SM CLR 25/24 A2994 RMK AO2 T02520237

More Conditions Fewer Conditions

10-Day Weather Forecast

Almanac

Astronomy

Sep. 20, 2014 Rise Set
Actual Time 7:13 AM CDT 7:25 PM CDT
Civil Twilight 6:50 AM CDT 7:48 PM CDT
Nautical Twilight 6:22 AM CDT 8:16 PM CDT
Astronomical Twilight 5:55 AM CDT 8:43 PM CDT
Moon 4:07 AM CDT (9/20) 5:18 PM CDT (9/20)
Length of Visible Light 12h 58m
Length of Day
12h 11m
Tomorrow will be 1m 40s shorter.
Waning Crescent, 9% of the Moon is Illuminated
Sep 21
Waning Crescent
Sep 24
New
Oct 1
First Quarter
Oct 8
Full
Oct 15
Last Quarter

Today's Extremes

State Highs State Lows

Community

WunderPhotos

Upload Photos

1,755,081 photos uploaded!

Nearby

Air Quality

  Air Quality AQ Index Pollutant
Yesterday Good
OZONE
Current Good
OZONE
Saturday Good
OZONE
Saturday Good
PM10
Sunday Good
OZONE
Sunday Good
PM10
Monday Good
OZONE
Monday Good
PM10
Tuesday Good
OZONE
Tuesday Good
PM10

Snow Depth

Station Depth Elevation
No new snow has been reported.

Earthquake Activity

City Distance Mag. Time & Date
No recent earthquake activity has been reported nearby.
Minimum magnitude displayed is 2.5.

Coastal Water Temperatures

Place Temperature
Rockport, TX 84.9 °F
Seadrift, TX 82.9 °F
Port Aransas, TX 84.9 °F

Nearby Weather Stations